sensor_id;sensor_type;location;lat;lon;timestamp;pressure;altitude;pressure_sealevel;temperature;humidity
59951;BME280;45812;53.540;9.774;2023-02-17T00:00:52;101589.09;;;7.71;100.00
59951;BME280;45812;53.540;9.774;2023-02-17T00:03:17;101578.22;;;7.74;100.00
59951;BME280;45812;53.540;9.774;2023-02-17T00:05:42;101583.19;;;7.68;100.00
59951;BME280;45812;53.540;9.774;2023-02-17T00:08:07;101579.66;;;7.78;100.00
59951;BME280;45812;53.540;9.774;2023-02-17T00:10:33;101577.13;;;7.77;100.00
59951;BME280;45812;53.540;9.774;2023-02-17T00:12:58;101572.66;;;7.77;100.00
59951;BME280;45812;53.540;9.774;2023-02-17T00:15:23;101578.34;;;7.73;100.00
59951;BME280;45812;53.540;9.774;2023-02-17T00:17:48;101580.59;;;7.88;100.00
59951;BME280;45812;53.540;9.774;2023-02-17T00:20:13;101571.22;;;7.84;100.00
59951;BME280;45812;53.540;9.774;2023-02-17T00:22:39;101566.38;;;7.89;100.00
59951;BME280;45812;53.540;9.774;2023-02-17T00:25:04;101567.59;;;7.85;100.00
59951;BME280;45812;53.540;9.774;2023-02-17T00:27:30;101580.38;;;7.80;100.00
59951;BME280;45812;53.540;9.774;2023-02-17T00:29:55;101578.53;;;7.92;100.00
59951;BME280;45812;53.540;9.774;2023-02-17T00:32:20;101568.19;;;7.89;100.00
59951;BME280;45812;53.540;9.774;2023-02-17T00:34:45;101565.53;;;7.89;100.00
59951;BME280;45812;53.540;9.774;2023-02-17T00:37:11;101564.44;;;7.92;100.00
59951;BME280;45812;53.540;9.774;2023-02-17T00:39:36;101564.44;;;7.92;100.00
59951;BME280;45812;53.540;9.774;2023-02-17T00:42:01;101562.50;;;7.94;100.00
59951;BME280;45812;53.540;9.774;2023-02-17T00:44:26;101566.25;;;7.91;100.00
59951;BME280;45812;53.540;9.774;2023-02-17T00:46:52;101565.72;;;7.97;100.00
59951;BME280;45812;53.540;9.774;2023-02-17T00:49:23;101565.25;;;8.03;100.00
59951;BME280;45812;53.540;9.774;2023-02-17T00:51:49;101555.00;;;7.99;100.00
59951;BME280;45812;53.540;9.774;2023-02-17T00:54:15;101558.47;;;7.99;100.00
59951;BME280;45812;53.540;9.774;2023-02-17T00:56:40;101555.59;;;8.02;100.00
59951;BME280;45812;53.540;9.774;2023-02-17T00:59:06;101551.00;;;8.04;100.00
59951;BME280;45812;53.540;9.774;2023-02-17T01:01:32;101559.81;;;8.05;100.00
59951;BME280;45812;53.540;9.774;2023-02-17T01:03:57;101557.59;;;8.10;100.00
59951;BME280;45812;53.540;9.774;2023-02-17T01:06:29;101552.88;;;8.13;100.00
59951;BME280;45812;53.540;9.774;2023-02-17T01:08:55;101542.00;;;8.16;100.00
59951;BME280;45812;53.540;9.774;2023-02-17T01:11:23;101547.56;;;8.13;100.00
59951;BME280;45812;53.540;9.774;2023-02-17T01:13:49;101541.56;;;8.11;100.00
59951;BME280;45812;53.540;9.774;2023-02-17T01:16:21;101535.81;;;8.06;100.00
59951;BME280;45812;53.540;9.774;2023-02-17T01:18:47;101529.53;;;8.07;100.00
59951;BME280;45812;53.540;9.774;2023-02-17T01:23:42;101511.81;;;8.08;100.00
59951;BME280;45812;53.540;9.774;2023-02-17T01:26:12;101516.72;;;8.12;100.00
59951;BME280;45812;53.540;9.774;2023-02-17T01:28:38;101514.22;;;8.11;100.00
59951;BME280;45812;53.540;9.774;2023-02-17T01:31:09;101510.72;;;8.10;100.00
59951;BME280;45812;53.540;9.774;2023-02-17T01:33:36;101515.00;;;8.23;100.00
59951;BME280;45812;53.540;9.774;2023-02-17T01:36:05;101501.03;;;8.20;100.00
59951;BME280;45812;53.540;9.774;2023-02-17T01:38:32;101501.34;;;8.27;100.00
59951;BME280;45812;53.540;9.774;2023-02-17T01:40:57;101500.81;;;8.33;100.00
59951;BME280;45812;53.540;9.774;2023-02-17T01:43:23;101500.56;;;8.36;100.00
59951;BME280;45812;53.540;9.774;2023-02-17T01:45:51;101495.75;;;8.30;100.00
59951;BME280;45812;53.540;9.774;2023-02-17T01:48:21;101499.38;;;8.29;100.00
59951;BME280;45812;53.540;9.774;2023-02-17T01:50:54;101488.03;;;8.38;100.00
59951;BME280;45812;53.540;9.774;2023-02-17T01:53:32;101479.34;;;8.36;100.00
59951;BME280;45812;53.540;9.774;2023-02-17T01:55:59;101470.69;;;8.34;100.00
59951;BME280;45812;53.540;9.774;2023-02-17T01:58:25;101472.97;;;8.39;100.00
59951;BME280;45812;53.540;9.774;2023-02-17T02:00:53;101470.91;;;8.31;100.00
59951;BME280;45812;53.540;9.774;2023-02-17T02:03:20;101475.63;;;8.39;100.00
59951;BME280;45812;53.540;9.774;2023-02-17T02:05:45;101462.78;;;8.44;100.00
59951;BME280;45812;53.540;9.774;2023-02-17T02:08:12;101467.66;;;8.39;100.00
59951;BME280;45812;53.540;9.774;2023-02-17T02:10:38;101463.34;;;8.47;100.00
59951;BME280;45812;53.540;9.774;2023-02-17T02:13:03;101446.03;;;8.43;100.00
59951;BME280;45812;53.540;9.774;2023-02-17T02:15:56;101438.06;;;8.43;100.00
59951;BME280;45812;53.540;9.774;2023-02-17T02:18:40;101428.56;;;8.41;100.00
59951;BME280;45812;53.540;9.774;2023-02-17T02:24:09;101429.53;;;8.40;100.00
59951;BME280;45812;53.540;9.774;2023-02-17T02:27:02;101420.91;;;8.47;100.00
59951;BME280;45812;53.540;9.774;2023-02-17T02:30:01;101411.53;;;8.43;100.00
59951;BME280;45812;53.540;9.774;2023-02-17T02:35:19;101403.84;;;8.40;100.00
59951;BME280;45812;53.540;9.774;2023-02-17T02:37:59;101404.41;;;8.44;100.00
59951;BME280;45812;53.540;9.774;2023-02-17T02:40:31;101404.97;;;8.47;100.00
59951;BME280;45812;53.540;9.774;2023-02-17T02:42:59;101416.03;;;8.53;100.00
59951;BME280;45812;53.540;9.774;2023-02-17T02:45:25;101407.78;;;8.46;100.00
59951;BME280;45812;53.540;9.774;2023-02-17T02:47:53;101402.75;;;8.53;100.00
59951;BME280;45812;53.540;9.774;2023-02-17T02:50:25;101398.59;;;8.60;100.00
59951;BME280;45812;53.540;9.774;2023-02-17T02:53:32;101393.72;;;8.65;100.00
59951;BME280;45812;53.540;9.774;2023-02-17T02:56:15;101394.84;;;8.62;100.00
59951;BME280;45812;53.540;9.774;2023-02-17T02:58:46;101386.31;;;8.59;100.00
59951;BME280;45812;53.540;9.774;2023-02-17T03:01:36;101378.50;;;8.57;100.00
59951;BME280;45812;53.540;9.774;2023-02-17T03:04:18;101391.78;;;8.67;100.00
59951;BME280;45812;53.540;9.774;2023-02-17T03:09:48;101384.94;;;8.64;100.00
59951;BME280;45812;53.540;9.774;2023-02-17T03:12:15;101377.81;;;8.65;100.00
59951;BME280;45812;53.540;9.774;2023-02-17T03:14:41;101377.81;;;8.65;100.00
59951;BME280;45812;53.540;9.774;2023-02-17T03:17:07;101373.06;;;8.68;100.00
59951;BME280;45812;53.540;9.774;2023-02-17T03:19:32;101363.56;;;8.66;100.00
59951;BME280;45812;53.540;9.774;2023-02-17T03:22:04;101358.25;;;8.66;100.00
59951;BME280;45812;53.540;9.774;2023-02-17T03:24:32;101360.09;;;8.75;100.00
59951;BME280;45812;53.540;9.774;2023-02-17T03:26:58;101353.69;;;8.77;100.00
59951;BME280;45812;53.540;9.774;2023-02-17T03:29:24;101352.81;;;8.67;100.00
59951;BME280;45812;53.540;9.774;2023-02-17T03:31:49;101351.69;;;8.70;100.00
59951;BME280;45812;53.540;9.774;2023-02-17T03:34:14;101341.06;;;8.70;100.00
59951;BME280;45812;53.540;9.774;2023-02-17T03:36:40;101350.19;;;8.77;100.00
59951;BME280;45812;53.540;9.774;2023-02-17T03:39:05;101351.13;;;8.66;100.00
59951;BME280;45812;53.540;9.774;2023-02-17T03:41:30;101344.28;;;8.73;100.00
59951;BME280;45812;53.540;9.774;2023-02-17T03:43:55;101350.28;;;8.66;100.00
59951;BME280;45812;53.540;9.774;2023-02-17T03:46:21;101345.41;;;8.71;100.00
59951;BME280;45812;53.540;9.774;2023-02-17T03:48:46;101345.72;;;8.77;100.00
59951;BME280;45812;53.540;9.774;2023-02-17T03:51:20;101332.56;;;8.76;100.00
59951;BME280;45812;53.540;9.774;2023-02-17T03:53:46;101346.00;;;8.84;100.00
59951;BME280;45812;53.540;9.774;2023-02-17T03:56:13;101337.19;;;8.84;100.00
59951;BME280;45812;53.540;9.774;2023-02-17T03:58:39;101329.66;;;8.79;100.00
59951;BME280;45812;53.540;9.774;2023-02-17T04:01:05;101318.34;;;8.77;100.00
59951;BME280;45812;53.540;9.774;2023-02-17T04:03:31;101314.97;;;8.75;100.00
59951;BME280;45812;53.540;9.774;2023-02-17T04:05:56;101317.75;;;8.73;100.00
59951;BME280;45812;53.540;9.774;2023-02-17T04:08:22;101317.50;;;8.76;100.00
59951;BME280;45812;53.540;9.774;2023-02-17T04:10:52;101309.81;;;8.83;100.00
59951;BME280;45812;53.540;9.774;2023-02-17T04:13:18;101303.78;;;8.81;100.00
59951;BME280;45812;53.540;9.774;2023-02-17T04:15:43;101302.25;;;8.88;100.00
59951;BME280;45812;53.540;9.774;2023-02-17T04:18:08;101310.34;;;8.87;100.00
59951;BME280;45812;53.540;9.774;2023-02-17T04:20:34;101296.25;;;8.86;100.00
59951;BME280;45812;53.540;9.774;2023-02-17T04:22:59;101303.50;;;8.84;100.00
59951;BME280;45812;53.540;9.774;2023-02-17T04:25:24;101302.25;;;8.88;100.00
59951;BME280;45812;53.540;9.774;2023-02-17T04:27:49;101303.22;;;8.87;100.00
59951;BME280;45812;53.540;9.774;2023-02-17T04:30:16;101302.25;;;8.88;100.00
59951;BME280;45812;53.540;9.774;2023-02-17T04:32:41;101310.34;;;8.87;100.00
59951;BME280;45812;53.540;9.774;2023-02-17T04:35:06;101302.97;;;9.00;100.00
59951;BME280;45812;53.540;9.774;2023-02-17T04:37:31;101305.22;;;8.95;100.00
59951;BME280;45812;53.540;9.774;2023-02-17T04:39:57;101294.56;;;8.85;100.00
59951;BME280;45812;53.540;9.774;2023-02-17T04:42:22;101307.03;;;8.94;100.00
59951;BME280;45812;53.540;9.774;2023-02-17T04:44:47;101293.59;;;8.96;100.00
59951;BME280;45812;53.540;9.774;2023-02-17T04:47:12;101282.00;;;8.87;100.00
59951;BME280;45812;53.540;9.774;2023-02-17T04:49:38;101285.06;;;8.92;100.00
59951;BME280;45812;53.540;9.774;2023-02-17T04:52:03;101275.03;;;8.96;100.00
59951;BME280;45812;53.540;9.774;2023-02-17T04:54:28;101283.38;;;8.91;100.00
59951;BME280;45812;53.540;9.774;2023-02-17T04:56:54;101284.09;;;8.93;100.00
59951;BME280;45812;53.540;9.774;2023-02-17T04:59:19;101275.56;;;8.99;100.00
59951;BME280;45812;53.540;9.774;2023-02-17T05:01:44;101282.13;;;9.05;100.00
59951;BME280;45812;53.540;9.774;2023-02-17T05:04:09;101273.03;;;9.07;100.00
59951;BME280;45812;53.540;9.774;2023-02-17T05:06:35;101283.94;;;9.04;100.00
59951;BME280;45812;53.540;9.774;2023-02-17T05:09:00;101286.06;;;9.01;100.00
59951;BME280;45812;53.540;9.774;2023-02-17T05:11:25;101274.31;;;9.03;100.00
59951;BME280;45812;53.540;9.774;2023-02-17T05:13:50;101266.75;;;8.99;100.00
59951;BME280;45812;53.540;9.774;2023-02-17T05:16:16;101249.72;;;9.01;100.00
59951;BME280;45812;53.540;9.774;2023-02-17T05:18:41;101251.66;;;8.99;100.00
59951;BME280;45812;53.540;9.774;2023-02-17T05:21:06;101254.91;;;8.93;100.00
59951;BME280;45812;53.540;9.774;2023-02-17T05:23:31;101263.28;;;8.98;100.00
59951;BME280;45812;53.540;9.774;2023-02-17T05:25:57;101245.66;;;8.97;100.00
59951;BME280;45812;53.540;9.774;2023-02-17T05:28:22;101232.94;;;9.01;100.00
59951;BME280;45812;53.540;9.774;2023-02-17T05:30:48;101231.53;;;9.06;100.00
59951;BME280;45812;53.540;9.774;2023-02-17T05:33:14;101230.53;;;9.07;100.00
59951;BME280;45812;53.540;9.774;2023-02-17T05:35:39;101223.84;;;9.03;100.00
59951;BME280;45812;53.540;9.774;2023-02-17T05:38:04;101221.19;;;9.03;100.00
59951;BME280;45812;53.540;9.774;2023-02-17T05:40:29;101215.88;;;9.03;100.00
59951;BME280;45812;53.540;9.774;2023-02-17T05:42:55;101222.56;;;9.07;100.00
59951;BME280;45812;53.540;9.774;2023-02-17T05:45:20;101213.22;;;9.03;100.00
59951;BME280;45812;53.540;9.774;2023-02-17T05:47:45;101195.03;;;9.08;100.00
59951;BME280;45812;53.540;9.774;2023-02-17T05:50:11;101211.00;;;8.99;100.00
59951;BME280;45812;53.540;9.774;2023-02-17T05:52:36;101205.25;;;9.03;100.00
59951;BME280;45812;53.540;9.774;2023-02-17T05:55:02;101196.91;;;8.98;100.00
59951;BME280;45812;53.540;9.774;2023-02-17T05:57:29;101200.09;;;8.92;100.00
59951;BME280;45812;53.540;9.774;2023-02-17T05:59:54;101196.75;;;8.90;100.00
59951;BME280;45812;53.540;9.774;2023-02-17T06:02:19;101196.75;;;9.00;100.00
59951;BME280;45812;53.540;9.774;2023-02-17T06:04:45;101205.16;;;8.95;100.00
59951;BME280;45812;53.540;9.774;2023-02-17T06:07:10;101204.31;;;8.95;100.00
59951;BME280;45812;53.540;9.774;2023-02-17T06:09:35;101203.03;;;8.99;100.00
59951;BME280;45812;53.540;9.774;2023-02-17T06:12:01;101198.16;;;8.94;100.00
59951;BME280;45812;53.540;9.774;2023-02-17T06:14:26;101189.63;;;9.00;100.00
59951;BME280;45812;53.540;9.774;2023-02-17T06:16:51;101185.97;;;9.01;100.00
59951;BME280;45812;53.540;9.774;2023-02-17T06:19:17;101179.16;;;8.89;100.00
59951;BME280;45812;53.540;9.774;2023-02-17T06:21:43;101172.16;;;8.88;100.00
59951;BME280;45812;53.540;9.774;2023-02-17T06:24:08;101175.50;;;8.90;100.00
59951;BME280;45812;53.540;9.774;2023-02-17T06:26:33;101156.94;;;8.90;100.00
59951;BME280;45812;53.540;9.774;2023-02-17T06:28:58;101156.53;;;8.85;100.00
59951;BME280;45812;53.540;9.774;2023-02-17T06:31:24;101158.06;;;8.88;100.00
59951;BME280;45812;53.540;9.774;2023-02-17T06:33:49;101148.97;;;8.90;100.00
59951;BME280;45812;53.540;9.774;2023-02-17T06:36:14;101145.06;;;8.94;100.00
59951;BME280;45812;53.540;9.774;2023-02-17T06:38:39;101125.75;;;8.92;100.00
59951;BME280;45812;53.540;9.774;2023-02-17T06:41:04;101129.69;;;8.88;100.00
59951;BME280;45812;53.540;9.774;2023-02-17T06:43:30;101133.31;;;8.87;100.00
59951;BME280;45812;53.540;9.774;2023-02-17T06:45:55;101122.31;;;8.82;100.00
59951;BME280;45812;53.540;9.774;2023-02-17T06:48:20;101115.44;;;8.89;100.00
59951;BME280;45812;53.540;9.774;2023-02-17T06:50:48;101135.00;;;8.88;100.00
59951;BME280;45812;53.540;9.774;2023-02-17T06:53:13;101116.47;;;8.78;100.00
59951;BME280;45812;53.540;9.774;2023-02-17T06:55:38;101103.44;;;8.85;100.00
59951;BME280;45812;53.540;9.774;2023-02-17T06:58:03;101113.66;;;8.80;100.00
59951;BME280;45812;53.540;9.774;2023-02-17T07:00:29;101098.72;;;8.79;100.00
59951;BME280;45812;53.540;9.774;2023-02-17T07:02:54;101096.59;;;8.83;100.00
59951;BME280;45812;53.540;9.774;2023-02-17T07:05:19;101094.09;;;8.81;100.00
59951;BME280;45812;53.540;9.774;2023-02-17T07:07:44;101088.09;;;8.79;100.00
59951;BME280;45812;53.540;9.774;2023-02-17T07:10:10;101085.84;;;8.84;100.00
59951;BME280;45812;53.540;9.774;2023-02-17T07:12:35;101103.16;;;8.88;100.00
59951;BME280;45812;53.540;9.774;2023-02-17T07:15:01;101097.69;;;8.90;100.00
59951;BME280;45812;53.540;9.774;2023-02-17T07:17:26;101100.19;;;8.91;100.00
59951;BME280;45812;53.540;9.774;2023-02-17T07:19:51;101079.41;;;8.87;100.00
59951;BME280;45812;53.540;9.774;2023-02-17T07:22:16;101090.84;;;8.87;100.00
59951;BME280;45812;53.540;9.774;2023-02-17T07:24:42;101088.50;;;8.84;100.00
59951;BME280;45812;53.540;9.774;2023-02-17T07:27:07;101106.78;;;8.87;100.00
59951;BME280;45812;53.540;9.774;2023-02-17T07:29:33;101085.25;;;8.90;100.00
59951;BME280;45812;53.540;9.774;2023-02-17T07:31:58;101087.91;;;8.90;100.00
59951;BME280;45812;53.540;9.774;2023-02-17T07:34:23;101067.66;;;8.89;100.00
59951;BME280;45812;53.540;9.774;2023-02-17T07:36:49;101088.50;;;8.84;100.00
59951;BME280;45812;53.540;9.774;2023-02-17T07:39:14;101094.38;;;8.78;100.00
59951;BME280;45812;53.540;9.774;2023-02-17T07:41:39;101080.81;;;8.81;100.00
59951;BME280;45812;53.540;9.774;2023-02-17T07:44:05;101070.22;;;8.81;100.00
59951;BME280;45812;53.540;9.774;2023-02-17T07:46:30;101072.72;;;8.83;100.00
59951;BME280;45812;53.540;9.774;2023-02-17T07:48:56;101070.91;;;8.83;100.00
59951;BME280;45812;53.540;9.774;2023-02-17T07:51:22;101076.59;;;8.88;100.00
59951;BME280;45812;53.540;9.774;2023-02-17T07:53:49;101078.84;;;8.83;100.00
59951;BME280;45812;53.540;9.774;2023-02-17T07:56:16;101072.13;;;8.89;100.00
59951;BME280;45812;53.540;9.774;2023-02-17T07:58:43;101061.34;;;8.90;100.00
59951;BME280;45812;53.540;9.774;2023-02-17T08:03:38;101049.75;;;8.91;100.00
59951;BME280;45812;53.540;9.774;2023-02-17T08:06:08;101039.72;;;8.95;100.00
59951;BME280;45812;53.540;9.774;2023-02-17T08:08:33;101017.34;;;8.97;100.00
59951;BME280;45812;53.540;9.774;2023-02-17T08:11:17;101050.75;;;8.90;100.00
59951;BME280;45812;53.540;9.774;2023-02-17T08:14:02;101019.19;;;8.87;100.00
59951;BME280;45812;53.540;9.774;2023-02-17T08:16:27;101016.97;;;8.83;100.00
59951;BME280;45812;53.540;9.774;2023-02-17T08:18:53;101005.06;;;8.87;100.00
59951;BME280;45812;53.540;9.774;2023-02-17T08:21:23;101001.19;;;8.81;100.00
59951;BME280;45812;53.540;9.774;2023-02-17T08:23:48;100979.22;;;8.89;100.00
59951;BME280;45812;53.540;9.774;2023-02-17T08:26:13;100986.47;;;8.96;100.00
59951;BME280;45812;53.540;9.774;2023-02-17T08:28:39;101009.66;;;8.94;100.00
59951;BME280;45812;53.540;9.774;2023-02-17T08:31:04;100990.09;;;8.95;100.00
59951;BME280;45812;53.540;9.774;2023-02-17T08:33:30;100977.59;;;9.05;100.00
59951;BME280;45812;53.540;9.774;2023-02-17T08:35:55;100981.16;;;8.96;100.00
59951;BME280;45812;53.540;9.774;2023-02-17T08:38:20;100983.50;;;8.99;100.00
59951;BME280;45812;53.540;9.774;2023-02-17T08:40:46;100980.63;;;8.93;100.00
59951;BME280;45812;53.540;9.774;2023-02-17T08:43:11;100989.69;;;8.90;100.00
59951;BME280;45812;53.540;9.774;2023-02-17T08:45:36;100979.34;;;8.87;100.00
59951;BME280;45812;53.540;9.774;2023-02-17T08:48:05;100986.63;;;8.85;100.00
59951;BME280;45812;53.540;9.774;2023-02-17T08:50:31;100986.50;;;8.87;100.00
59951;BME280;45812;53.540;9.774;2023-02-17T08:52:57;100995.28;;;8.87;100.00
59951;BME280;45812;53.540;9.774;2023-02-17T08:55:22;100992.34;;;8.90;100.00
59951;BME280;45812;53.540;9.774;2023-02-17T08:57:48;100985.06;;;8.92;100.00
59951;BME280;45812;53.540;9.774;2023-02-17T09:00:15;101006.72;;;8.97;100.00
59951;BME280;45812;53.540;9.774;2023-02-17T09:02:41;100990.78;;;8.97;100.00
59951;BME280;45812;53.540;9.774;2023-02-17T09:05:10;100993.00;;;9.02;100.00
59951;BME280;45812;53.540;9.774;2023-02-17T09:07:36;101005.97;;;9.05;100.00
59951;BME280;45812;53.540;9.774;2023-02-17T09:10:03;100987.06;;;9.08;100.00
59951;BME280;45812;53.540;9.774;2023-02-17T09:12:29;100980.41;;;9.04;100.00
59951;BME280;45812;53.540;9.774;2023-02-17T09:14:54;100988.22;;;9.05;100.00
59951;BME280;45812;53.540;9.774;2023-02-17T09:17:20;100989.88;;;9.06;100.00
59951;BME280;45812;53.540;9.774;2023-02-17T09:19:45;100988.66;;;9.01;100.00
59951;BME280;45812;53.540;9.774;2023-02-17T09:22:11;100965.06;;;8.98;100.00
59951;BME280;45812;53.540;9.774;2023-02-17T09:24:38;100953.00;;;9.03;100.00
59951;BME280;45812;53.540;9.774;2023-02-17T09:27:04;100953.94;;;9.12;100.00
59951;BME280;45812;53.540;9.774;2023-02-17T09:29:30;100939.44;;;9.06;100.00
59951;BME280;45812;53.540;9.774;2023-02-17T09:31:55;100945.41;;;9.08;100.00
59951;BME280;45812;53.540;9.774;2023-02-17T09:34:20;100926.41;;;9.13;100.00
59951;BME280;45812;53.540;9.774;2023-02-17T09:36:45;100945.69;;;9.15;100.00
59951;BME280;45812;53.540;9.774;2023-02-17T09:39:11;100947.94;;;9.10;100.00
59951;BME280;45812;53.540;9.774;2023-02-17T09:41:44;100938.69;;;9.14;100.00
59951;BME280;45812;53.540;9.774;2023-02-17T09:44:25;100925.13;;;9.17;100.00
59951;BME280;45812;53.540;9.774;2023-02-17T09:49:39;100919.66;;;9.19;100.00
59951;BME280;45812;53.540;9.774;2023-02-17T09:54:46;100946.22;;;9.19;100.00
59951;BME280;45812;53.540;9.774;2023-02-17T09:57:19;100942.56;;;9.20;100.00
59951;BME280;45812;53.540;9.774;2023-02-17T09:59:53;100936.72;;;9.16;100.00
59951;BME280;45812;53.540;9.774;2023-02-17T10:02:24;100945.00;;;9.13;100.00
59951;BME280;45812;53.540;9.774;2023-02-17T10:04:52;100922.75;;;9.14;100.00
59951;BME280;45812;53.540;9.774;2023-02-17T10:07:31;100923.13;;;9.19;100.00
59951;BME280;45812;53.540;9.774;2023-02-17T10:10:06;100939.97;;;9.28;100.00
59951;BME280;45812;53.540;9.774;2023-02-17T10:12:38;100924.03;;;9.28;100.00
59951;BME280;45812;53.540;9.774;2023-02-17T10:15:09;100931.63;;;9.23;100.00
59951;BME280;45812;53.540;9.774;2023-02-17T10:23:07;101008.47;;;9.34;100.00
59951;BME280;45812;53.540;9.774;2023-02-17T10:25:56;100967.53;;;9.27;100.00
59951;BME280;45812;53.540;9.774;2023-02-17T10:28:51;100959.56;;;9.27;100.00
59951;BME280;45812;53.540;9.774;2023-02-17T10:34:35;100942.88;;;9.34;100.00
59951;BME280;45812;53.540;9.774;2023-02-17T10:37:04;100950.25;;;9.40;100.00
59951;BME280;45812;53.540;9.774;2023-02-17T10:39:46;100951.69;;;9.35;100.00
59951;BME280;45812;53.540;9.774;2023-02-17T10:42:28;100951.84;;;9.33;100.00
59951;BME280;45812;53.540;9.774;2023-02-17T10:45:03;100933.78;;;9.37;100.00
59951;BME280;45812;53.540;9.774;2023-02-17T10:47:29;100928.69;;;9.44;100.00
59951;BME280;45812;53.540;9.774;2023-02-17T10:49:56;100924.44;;;9.51;100.00
59951;BME280;45812;53.540;9.774;2023-02-17T10:52:28;100930.59;;;9.51;100.00
59951;BME280;45812;53.540;9.774;2023-02-17T10:54:59;100921.31;;;9.55;100.00
59951;BME280;45812;53.540;9.774;2023-02-17T10:57:32;100928.97;;;9.58;100.00
59951;BME280;45812;53.540;9.774;2023-02-17T10:59:59;100944.63;;;9.61;100.00
59951;BME280;45812;53.540;9.774;2023-02-17T11:02:43;100923.81;;;9.57;100.00
59951;BME280;45812;53.540;9.774;2023-02-17T11:05:29;100907.34;;;9.53;100.00
59951;BME280;45812;53.540;9.774;2023-02-17T11:07:58;100919.34;;;9.57;100.00
59951;BME280;45812;53.540;9.774;2023-02-17T11:10:36;100917.00;;;9.54;100.00
59951;BME280;45812;53.540;9.774;2023-02-17T11:15:56;100935.66;;;9.62;100.00
59951;BME280;45812;53.540;9.774;2023-02-17T11:18:27;100907.03;;;9.56;100.00
59951;BME280;45812;53.540;9.774;2023-02-17T11:21:05;100935.59;;;9.54;100.00
59951;BME280;45812;53.540;9.774;2023-02-17T11:23:31;100914.34;;;9.54;100.00
59951;BME280;45812;53.540;9.774;2023-02-17T11:26:06;100916.31;;;9.52;100.00
59951;BME280;45812;53.540;9.774;2023-02-17T11:28:33;100940.66;;;9.48;100.00
59951;BME280;45812;53.540;9.774;2023-02-17T11:30:59;100911.75;;;9.45;100.00
59951;BME280;45812;53.540;9.774;2023-02-17T11:33:37;100891.00;;;9.48;100.00
59951;BME280;45812;53.540;9.774;2023-02-17T11:36:05;100894.66;;;9.47;100.00
59951;BME280;45812;53.540;9.774;2023-02-17T11:41:04;100897.88;;;9.51;100.00
59951;BME280;45812;53.540;9.774;2023-02-17T11:43:31;100911.00;;;9.52;100.00
59951;BME280;45812;53.540;9.774;2023-02-17T11:46:23;100889.75;;;9.52;100.00
59951;BME280;45812;53.540;9.774;2023-02-17T11:54:57;100881.16;;;9.58;100.00
59951;BME280;45812;53.540;9.774;2023-02-17T11:57:53;100879.63;;;9.56;100.00
59951;BME280;45812;53.540;9.774;2023-02-17T12:00:34;100869.69;;;9.58;100.00
59951;BME280;45812;53.540;9.774;2023-02-17T12:03:20;100887.97;;;9.61;100.00
59951;BME280;45812;53.540;9.774;2023-02-17T12:06:12;100896.31;;;9.66;100.00
59951;BME280;45812;53.540;9.774;2023-02-17T12:12:11;100912.41;;;9.64;100.00
59951;BME280;45812;53.540;9.774;2023-02-17T12:18:02;100880.28;;;9.76;100.00
59951;BME280;45812;53.540;9.774;2023-02-17T12:20:49;100895.59;;;9.82;100.00
59951;BME280;45812;53.540;9.774;2023-02-17T12:23:28;100885.47;;;9.85;100.00
59951;BME280;45812;53.540;9.774;2023-02-17T12:25:58;100875.41;;;9.89;100.00
59951;BME280;45812;53.540;9.774;2023-02-17T12:28:40;100905.47;;;9.89;100.00
59951;BME280;45812;53.540;9.774;2023-02-17T12:31:41;100881.38;;;9.91;100.00
59951;BME280;45812;53.540;9.774;2023-02-17T12:34:33;100873.94;;;9.94;100.00
59951;BME280;45812;53.540;9.774;2023-02-17T12:36:59;100867.63;;;9.95;100.00
59951;BME280;45812;53.540;9.774;2023-02-17T12:39:30;100880.06;;;9.95;100.00
59951;BME280;45812;53.540;9.774;2023-02-17T12:42:25;100877.78;;;10.00;100.00
59951;BME280;45812;53.540;9.774;2023-02-17T12:44:56;100879.91;;;9.96;100.00
59951;BME280;45812;53.540;9.774;2023-02-17T12:47:34;100894.38;;;9.94;100.00
59951;BME280;45812;53.540;9.774;2023-02-17T12:50:05;100896.03;;;9.95;100.00
59951;BME280;45812;53.540;9.774;2023-02-17T12:52:39;100892.38;;;9.96;100.00
59951;BME280;45812;53.540;9.774;2023-02-17T12:55:16;100882.09;;;10.01;100.00
59951;BME280;45812;53.540;9.774;2023-02-17T12:57:51;100901.72;;;10.00;100.00
59951;BME280;45812;53.540;9.774;2023-02-17T13:00:26;100900.72;;;10.01;100.00
59951;BME280;45812;53.540;9.774;2023-02-17T13:02:59;100885.41;;;9.95;100.00
59951;BME280;45812;53.540;9.774;2023-02-17T13:05:38;100883.56;;;9.95;100.00
59951;BME280;45812;53.540;9.774;2023-02-17T13:11:01;100893.34;;;9.87;100.00
59951;BME280;45812;53.540;9.774;2023-02-17T13:13:29;100884.03;;;9.91;100.00
59951;BME280;45812;53.540;9.774;2023-02-17T13:16:06;100907.31;;;9.89;100.00
59951;BME280;45812;53.540;9.774;2023-02-17T13:18:34;100889.00;;;9.86;100.00
59951;BME280;45812;53.540;9.774;2023-02-17T13:24:04;100917.03;;;9.80;100.00
59951;BME280;45812;53.540;9.774;2023-02-17T13:26:43;100894.44;;;9.84;100.00
59951;BME280;45812;53.540;9.774;2023-02-17T13:29:19;100925.38;;;9.85;100.00
59951;BME280;45812;53.540;9.774;2023-02-17T13:31:57;100908.66;;;9.93;100.00
59951;BME280;45812;53.540;9.774;2023-02-17T13:34:41;100878.94;;;9.97;100.00
59951;BME280;45812;53.540;9.774;2023-02-17T13:37:17;100917.31;;;9.95;100.00
59951;BME280;45812;53.540;9.774;2023-02-17T13:39:44;100891.88;;;9.92;100.00
59951;BME280;45812;53.540;9.774;2023-02-17T13:44:53;100880.91;;;9.95;100.00
59951;BME280;45812;53.540;9.774;2023-02-17T13:47:37;100883.88;;;9.92;100.00
59951;BME280;45812;53.540;9.774;2023-02-17T13:50:05;100901.66;;;9.92;100.00
59951;BME280;45812;53.540;9.774;2023-02-17T13:52:31;100910.78;;;9.89;100.00
59951;BME280;45812;53.540;9.774;2023-02-17T13:55:02;100917.63;;;9.92;100.00